Windsor, OH (44099)

11:57 AM EDT on August 04, 2015 (GMT -0400)
KOHMONTV2 | | Change Station
CLOSE
Current Station
Personal Weather Station
Location: Montville, OH
Elevation: 1282 ft
Nearby Weather Stations

Elev 1282 ft 41.59 °N, 81.05 °W | Updated 4 seconds ago

Clear
Clear
73.2 °F
Feels Like 76 °F
N
2.0
Wind Variable Wind from West
Gusts 9.0 mph

Today
High -- | Low -- °F
--% Chance of Precip.
Yesterday
High -- | Low -- °F
Precip. -- in
6:21 AM 8:38 PM
Waning Gibbous, 76% visible
Pressure 29.96 in
Visibility 10.0 miles
Clouds Scattered Clouds 4400 ft
Heat Index 76 °F
Dew Point 59 °F
Humidity 61%
Rainfall 0.00 in
Snow Depth Not available.
UV 7 out of 12
Pollen 7.20 out of 12
Air Quality Not available.
Flu Activity Not available.
METAR KHZY 041553Z AUTO 26012G16KT 10SM SCT044 24/15 A2997 RMK AO2 SLP144 T02440150

More Conditions Fewer Conditions

Pressure 29.96 in
Visibility 10.0 miles
Clouds Scattered Clouds 4400 ft
Heat Index 76 °F
Dew Point 59 °F
Humidity 61%
Rainfall 0.00 in
Snow Depth Not available.
UV 7 out of 12
Pollen 7.20 out of 12
Air Quality Not available.
Flu Activity Not available.
METAR KHZY 041553Z AUTO 26012G16KT 10SM SCT044 24/15 A2997 RMK AO2 SLP144 T02440150

More Conditions Fewer Conditions

10-Day Weather Forecast

×

Almanac

Astronomy

Aug. 04, 2015 Rise Set
Actual Time
Civil Twilight
Nautical Twilight
Astronomical Twilight
Moon
Length of Visible Light
Length of Day
Tomorrow will be .
, % of the Moon is Illuminated

Today's Extremes

State Highs State Lows

Community

WunderPhotos

Upload Photos

1,843,909 photos uploaded!

WunderBlogs® & News

Nearby

Air Quality

  Air Quality AQ Index Pollutant
Not available.

Snow Depth

Station Depth Elevation

Earthquake Activity

City Distance Mag. Time & Date
Minimum magnitude displayed is 2.5.

Coastal Water Temperatures

Place Temperature

Stations

Nearby Weather Stations

Station Location Temp. Windchill Dew Point Humidity Wind Precip. Elev Updated Type